Time;durP1;ratioP1;P1;durP2;ratioP2;P2;SDS_P1;SDS_P2;PMS_P1;PMS_P2;Temp;Humidity;BMP_temperature;BMP_pressure;BME280_temperature;BME280_humidity;BME280_pressure;Samples;Min_cycle;Max_cycle;Signal;HPM_P1;HPM_P2
2022/01/28 00:05:49;;;;;;;12.05;1.85;;;;;;;3.12;100.00;101252.31;6045718;29;20052;-87
2022/01/28 00:08:51;;;;;;;10.55;1.88;;;;;;;3.23;100.00;101234.06;6037772;29;20054;-87
2022/01/28 00:11:53;;;;;;;8.73;1.75;;;;;;;3.18;100.00;101258.94;6044659;29;20049;-87
2022/01/28 00:15:05;;;;;;;16.92;1.63;;;;;;;3.16;100.00;101245.41;6041940;29;20182;-86
2022/01/28 00:38:24;;;;;;;11.13;2.45;;;;;;;3.10;100.00;101272.00;6055382;29;20053;-87
2022/01/28 00:41:26;;;;;;;14.57;1.95;;;;;;;3.12;100.00;101261.72;6058771;29;20446;-87
2022/01/28 00:44:28;;;;;;;11.60;2.05;;;;;;;3.07;100.00;101274.69;6042493;29;20064;-87
2022/01/28 00:47:30;;;;;;;12.98;2.17;;;;;;;3.01;100.00;101268.06;6044714;29;20473;-87
2022/01/28 00:50:33;;;;;;;14.85;2.00;;;;;;;3.00;100.00;101260.44;6045774;29;20060;-87
2022/01/28 00:53:34;;;;;;;7.25;1.65;;;;;;;3.07;100.00;101274.69;6043620;29;20411;-86
2022/01/28 00:56:37;;;;;;;6.53;1.90;;;;;;;3.08;100.00;101276.38;6045654;29;20041;-87
2022/01/28 00:59:39;;;;;;;6.47;2.13;;;;;;;3.17;100.00;101276.00;6035235;29;20279;-87
2022/01/28 01:02:42;;;;;;;15.10;3.60;;;;;;;3.19;100.00;101299.81;6028747;29;20064;-87
2022/01/28 01:05:44;;;;;;;10.70;2.05;;;;;;;3.17;100.00;101285.41;6036696;29;20555;-87
2022/01/28 01:08:47;;;;;;;14.23;2.65;;;;;;;3.14;100.00;101293.22;6046655;29;20117;-87
2022/01/28 01:11:49;;;;;;;13.10;1.85;;;;;;;3.09;100.00;101308.72;6026432;29;20164;-87
2022/01/28 01:14:51;;;;;;;14.80;2.50;;;;;;;3.03;100.00;101311.47;6039373;29;20544;-87
2022/01/28 01:18:17;;;;;;;14.90;1.92;;;;;;;3.05;100.00;101304.59;6032661;29;20523;-87
2022/01/28 01:21:26;;;;;;;12.07;2.53;;;;;;;2.99;100.00;101321.00;6035490;29;20053;-87
2022/01/28 01:24:35;;;;;;;9.80;2.05;;;;;;;2.88;100.00;101327.34;6032424;29;20516;-87
2022/01/28 01:27:37;;;;;;;13.50;2.65;;;;;;;2.89;100.00;101329.03;6029246;29;20045;-86
2022/01/28 01:30:42;;;;;;;13.10;2.17;;;;;;;2.89;100.00;101323.91;6027473;29;20060;-86
2022/01/28 01:34:21;;;;;;;13.85;1.95;;;;;;;2.86;100.00;101349.56;6029011;29;20049;-86
2022/01/28 01:37:24;;;;;;;9.05;1.90;;;;;;;2.80;100.00;101358.28;6031430;29;20068;-86
2022/01/28 01:40:46;;;;;;;16.15;2.47;;;;;;;2.79;100.00;101370.25;6045280;29;20052;-86
2022/01/28 01:54:01;;;;;;;14.05;2.03;;;;;;;2.92;100.00;101369.84;6038443;29;20104;-86
2022/01/28 01:57:04;;;;;;;14.20;2.72;;;;;;;2.95;100.00;101396.13;6040742;29;20053;-86
2022/01/28 02:00:07;;;;;;;12.50;2.50;;;;;;;3.06;100.00;101387.28;6041451;29;20057;-86
2022/01/28 02:03:09;;;;;;;10.40;2.33;;;;;;;3.17;100.00;101375.78;6038493;29;20048;-86
2022/01/28 02:06:11;;;;;;;16.85;3.00;;;;;;;3.17;100.00;101373.22;6044524;29;20741;-85
2022/01/28 02:09:14;;;;;;;18.55;3.58;;;;;;;3.18;100.00;101369.78;6037647;29;20071;-85
2022/01/28 02:12:15;;;;;;;6.97;1.63;;;;;;;3.16;100.00;101379.25;6036057;29;20048;-85
2022/01/28 02:15:18;;;;;;;12.00;2.10;;;;;;;3.24;100.00;101392.59;6041823;29;20045;-86
2022/01/28 02:18:21;;;;;;;12.52;2.88;;;;;;;3.26;100.00;101399.41;6052677;29;20064;-86
2022/01/28 02:21:34;;;;;;;10.20;1.63;;;;;;;3.21;100.00;101402.13;6036820;29;20041;-86
2022/01/28 02:24:42;;;;;;;15.30;2.65;;;;;;;3.28;100.00;101416.38;6042950;29;20048;-85
2022/01/28 02:27:44;;;;;;;10.68;2.03;;;;;;;3.27;100.00;101421.53;6040016;29;20049;-85
2022/01/28 02:30:46;;;;;;;14.35;2.33;;;;;;;3.24;100.00;101420.75;6040445;29;20049;-85
2022/01/28 02:33:50;;;;;;;11.50;2.08;;;;;;;3.13;100.00;101420.28;6033789;29;20057;-86
2022/01/28 02:36:52;;;;;;;13.57;2.28;;;;;;;3.12;100.00;101433.94;6038930;29;20053;-86
2022/01/28 02:39:54;;;;;;;13.23;2.60;;;;;;;3.04;100.00;101418.03;6045882;29;20041;-86
2022/01/28 02:43:02;;;;;;;13.52;2.00;;;;;;;2.93;100.00;101448.22;6043329;29;20146;-85
2022/01/28 02:46:19;;;;;;;8.05;1.73;;;;;;;3.04;100.00;101441.03;6042410;29;20045;-85
2022/01/28 02:49:24;;;;;;;16.15;2.50;;;;;;;3.01;100.00;101441.97;6044482;29;20044;-85
2022/01/28 02:52:37;;;;;;;13.55;2.28;;;;;;;3.03;100.00;101444.47;6034707;29;20045;-85
2022/01/28 02:55:41;;;;;;;13.70;2.33;;;;;;;3.05;100.00;101442.69;6038911;29;20072;-85
2022/01/28 02:58:44;;;;;;;13.30;2.33;;;;;;;3.14;100.00;101452.63;6045759;29;20880;-85
2022/01/28 03:01:46;;;;;;;18.00;2.00;;;;;;;3.16;100.00;101456.00;6041652;29;20060;-85
2022/01/28 03:05:17;;;;;;;14.18;2.20;;;;;;;3.22;100.00;101452.38;6044980;29;20057;-85
2022/01/28 03:08:27;;;;;;;16.00;2.25;;;;;;;3.21;100.00;101459.22;6044718;29;20738;-85
2022/01/28 03:15:03;;;;;;;10.30;2.25;;;;;;;3.15;100.00;101471.38;6037840;29;20049;-85
2022/01/28 03:18:25;;;;;;;10.88;2.58;;;;;;;3.17;100.00;101483.22;6048151;29;20087;-85
2022/01/28 03:21:40;;;;;;;14.60;2.60;;;;;;;3.11;100.00;101478.31;6032187;29;20060;-85
2022/01/28 03:24:46;;;;;;;7.75;1.85;;;;;;;3.01;100.00;101482.06;6024993;29;20052;-85
2022/01/28 03:27:56;;;;;;;13.55;2.55;;;;;;;2.87;100.00;101468.88;6038285;29;20541;-85
2022/01/28 03:30:59;;;;;;;9.90;2.55;;;;;;;2.97;100.00;101486.44;6030450;29;20303;-85
2022/01/28 03:34:01;;;;;;;18.02;3.97;;;;;;;3.04;100.00;101491.38;6035643;29;20056;-85
2022/01/28 03:37:05;;;;;;;16.52;2.90;;;;;;;2.96;100.00;101482.22;6033194;29;20133;-85
2022/01/28 03:40:08;;;;;;;10.95;2.30;;;;;;;2.96;100.00;101499.28;6038238;29;20763;-85
2022/01/28 03:43:10;;;;;;;6.47;2.10;;;;;;;2.92;100.00;101513.03;6037690;29;20046;-85
2022/01/28 03:46:13;;;;;;;12.90;2.08;;;;;;;2.92;100.00;101500.25;6037878;29;20105;-85
2022/01/28 03:49:15;;;;;;;14.88;3.10;;;;;;;2.97;100.00;101504.31;6036751;29;20052;-85
2022/01/28 03:52:17;;;;;;;14.55;3.92;;;;;;;2.90;100.00;101504.56;6041793;29;20052;-87
2022/01/28 03:55:19;;;;;;;11.60;2.35;;;;;;;2.90;100.00;101510.50;6035433;29;20245;-85
2022/01/28 03:58:22;;;;;;;7.95;1.88;;;;;;;2.88;100.00;101512.31;6041124;29;20217;-85
2022/01/28 04:01:30;;;;;;;11.35;1.77;;;;;;;2.88;100.00;101519.13;6033155;29;20174;-85
2022/01/28 04:14:29;;;;;;;14.23;1.73;;;;;;;2.54;100.00;101538.88;6040504;29;20232;-85
2022/01/28 04:17:32;;;;;;;10.85;2.30;;;;;;;2.49;100.00;101542.44;6036086;29;20045;-85
2022/01/28 04:20:34;;;;;;;8.68;2.28;;;;;;;2.40;100.00;101543.53;6036707;29;20060;-85
2022/01/28 04:23:36;;;;;;;9.70;2.00;;;;;;;2.38;100.00;101552.97;6034423;29;20153;-85
2022/01/28 04:26:38;;;;;;;12.10;2.20;;;;;;;2.52;100.00;101553.41;6029166;29;20906;-85
2022/01/28 04:29:41;;;;;;;10.90;2.13;;;;;;;2.45;100.00;101553.63;6029011;29;20514;-85
2022/01/28 04:32:46;;;;;;;17.35;1.98;;;;;;;2.14;100.00;101563.00;6033928;29;20064;-85
2022/01/28 04:35:52;;;;;;;11.43;1.90;;;;;;;2.14;100.00;101557.06;6045259;29;20780;-85
2022/01/28 04:39:05;;;;;;;10.88;2.30;;;;;;;2.18;100.00;101566.28;6048605;29;20118;-85
2022/01/28 05:04:52;;;;;;;14.95;2.72;;;;;;;2.57;100.00;101596.72;6032580;29;20054;-85
2022/01/28 05:27:43;;;;;;;21.80;2.95;;;;;;;2.88;100.00;101599.25;6044598;29;20057;-85
2022/01/28 05:30:45;;;;;;;14.20;2.33;;;;;;;2.93;100.00;101607.63;6031903;29;20049;-85
2022/01/28 05:34:00;;;;;;;7.43;2.35;;;;;;;2.96;100.00;101627.16;6048104;29;20625;-85
2022/01/28 05:37:04;;;;;;;19.05;3.08;;;;;;;2.95;100.00;101626.28;6037430;29;20057;-85
2022/01/28 05:40:07;;;;;;;13.23;2.30;;;;;;;3.00;100.00;101623.59;6039966;29;20128;-85
2022/01/28 05:43:09;;;;;;;13.05;2.92;;;;;;;2.95;100.00;101646.75;6045390;29;20593;-85
2022/01/28 05:46:18;;;;;;;11.40;2.45;;;;;;;2.96;100.00;101668.06;6035356;29;20523;-85
2022/01/28 05:49:20;;;;;;;6.75;2.05;;;;;;;3.00;100.00;101678.13;6037843;29;20063;-85
2022/01/28 05:52:23;;;;;;;14.25;2.97;;;;;;;3.11;100.00;101654.81;6043855;29;20054;-85
2022/01/28 05:55:25;;;;;;;8.90;4.38;;;;;;;3.11;100.00;101670.16;6041872;29;20044;-85
2022/01/28 05:58:27;;;;;;;11.48;2.30;;;;;;;3.14;100.00;101661.56;6028281;29;20533;-85
2022/01/28 06:01:29;;;;;;;11.73;2.25;;;;;;;3.07;100.00;101701.84;6034244;29;20421;-84
2022/01/28 06:04:31;;;;;;;12.45;2.97;;;;;;;3.15;100.00;101693.94;6037980;29;20140;-85
2022/01/28 06:07:33;;;;;;;7.43;1.77;;;;;;;3.24;100.00;101714.97;6043032;29;20045;-85
2022/01/28 06:10:35;;;;;;;9.90;3.42;;;;;;;3.28;100.00;101715.72;6032371;29;20064;-85
2022/01/28 06:13:37;;;;;;;14.02;1.90;;;;;;;3.24;100.00;101707.28;6037658;29;20427;-85
2022/01/28 06:16:39;;;;;;;11.20;1.75;;;;;;;3.21;100.00;101712.50;6036238;29;20041;-85
2022/01/28 06:19:41;;;;;;;17.15;2.75;;;;;;;3.15;100.00;101719.50;6046621;29;20056;-85
2022/01/28 06:22:44;;;;;;;17.17;2.95;;;;;;;3.09;100.00;101722.25;6048489;29;20045;-85
2022/01/28 06:25:48;;;;;;;8.60;2.00;;;;;;;3.08;100.00;101729.09;6043704;29;20041;-85
2022/01/28 06:28:50;;;;;;;8.38;1.83;;;;;;;3.13;100.00;101737.47;6034108;29;20120;-85
2022/01/28 06:31:52;;;;;;;9.15;2.08;;;;;;;3.12;100.00;101733.22;6028746;29;20465;-85
2022/01/28 06:34:55;;;;;;;11.13;2.00;;;;;;;3.08;100.00;101729.09;6042896;29;20060;-85
2022/01/28 06:37:56;;;;;;;10.93;2.05;;;;;;;2.98;100.00;101736.19;6043853;29;20050;-85
2022/01/28 06:40:59;;;;;;;9.20;2.45;;;;;;;2.88;100.00;101744.13;6031378;29;20589;-85
2022/01/28 06:44:01;;;;;;;11.32;2.33;;;;;;;2.82;100.00;101739.22;6026945;29;20050;-85
2022/01/28 06:47:03;;;;;;;9.13;2.20;;;;;;;2.68;100.00;101739.56;6037225;29;20145;-85
2022/01/28 06:50:08;;;;;;;11.75;2.50;;;;;;;2.73;100.00;101748.81;6039541;29;20108;-85
2022/01/28 06:53:12;;;;;;;9.05;2.13;;;;;;;2.82;100.00;101757.09;6027740;29;20049;-85
2022/01/28 06:56:14;;;;;;;17.10;2.20;;;;;;;2.84;100.00;101761.28;6023955;29;20601;-85
2022/01/28 06:59:17;;;;;;;12.02;1.92;;;;;;;2.83;100.00;101771.56;6039369;29;20046;-85
2022/01/28 07:02:19;;;;;;;11.15;2.22;;;;;;;2.87;100.00;101788.50;6022397;29;20046;-85
2022/01/28 07:05:21;;;;;;;16.88;2.78;;;;;;;2.83;100.00;101792.84;6035560;29;20044;-85
2022/01/28 07:08:24;;;;;;;11.57;3.28;;;;;;;2.89;100.00;101789.31;6029722;29;20050;-85
2022/01/28 07:11:27;;;;;;;11.45;2.53;;;;;;;2.79;100.00;101798.94;6038774;29;20047;-85
2022/01/28 07:14:28;;;;;;;15.80;2.92;;;;;;;2.84;100.00;101807.31;6023305;29;20396;-85
2022/01/28 07:17:30;;;;;;;11.30;1.75;;;;;;;2.74;100.00;101799.06;6040206;29;20077;-85
2022/01/28 07:20:39;;;;;;;13.57;2.65;;;;;;;2.79;100.00;101810.00;6027956;29;20077;-85
2022/01/28 07:23:41;;;;;;;16.67;2.60;;;;;;;2.79;100.00;101815.09;6024716;29;20415;-85
2022/01/28 07:26:43;;;;;;;16.98;3.55;;;;;;;2.82;100.00;101821.84;6046720;29;20151;-85
2022/01/28 07:29:47;;;;;;;11.50;2.83;;;;;;;2.86;100.00;101825.16;6027287;29;20057;-85
2022/01/28 07:32:51;;;;;;;11.98;2.50;;;;;;;2.88;100.00;101828.53;6051503;29;20423;-85
2022/01/28 07:35:53;;;;;;;10.93;2.58;;;;;;;2.88;100.00;101833.63;6037243;29;20115;-85
2022/01/28 07:38:55;;;;;;;14.77;2.92;;;;;;;2.99;100.00;101823.97;6046726;29;20524;-85
2022/01/28 07:41:58;;;;;;;9.70;2.22;;;;;;;2.94;100.00;101834.34;6035664;29;20431;-85
2022/01/28 07:45:01;;;;;;;12.00;2.85;;;;;;;3.03;100.00;101828.13;6038058;29;20052;-85
2022/01/28 07:48:03;;;;;;;12.70;2.38;;;;;;;3.13;100.00;101838.94;6037796;29;20045;-85
2022/01/28 07:51:05;;;;;;;13.20;2.72;;;;;;;3.10;100.00;101844.97;6029045;29;20045;-85
2022/01/28 07:54:08;;;;;;;9.48;2.67;;;;;;;3.16;100.00;101856.78;6037360;29;20073;-85
2022/01/28 07:57:11;;;;;;;10.27;2.50;;;;;;;3.07;100.00;101857.88;6044121;29;20102;-85
2022/01/28 08:00:14;;;;;;;6.93;1.75;;;;;;;3.24;100.00;101865.09;6038186;29;20053;-85
2022/01/28 08:03:16;;;;;;;10.93;2.65;;;;;;;3.27;100.00;101861.63;6033408;29;20037;-85
2022/01/28 08:06:18;;;;;;;13.52;2.70;;;;;;;3.26;100.00;101865.06;6040169;29;20041;-85
2022/01/28 08:09:21;;;;;;;17.98;2.53;;;;;;;3.31;100.00;101864.06;6033140;29;20105;-85
2022/01/28 08:12:22;;;;;;;14.65;3.00;;;;;;;3.31;100.00;101876.84;6038847;29;20046;-85
2022/01/28 08:15:25;;;;;;;15.45;2.45;;;;;;;3.22;100.00;101877.91;6043239;29;20185;-85
2022/01/28 08:18:27;;;;;;;10.05;2.83;;;;;;;3.12;100.00;101888.44;6040636;29;20131;-85
2022/01/28 08:21:29;;;;;;;18.15;4.25;;;;;;;3.24;100.00;101891.53;6041172;29;20041;-85
2022/01/28 08:24:31;;;;;;;11.15;2.88;;;;;;;3.32;100.00;101901.56;6046154;29;20433;-85
2022/01/28 08:27:33;;;;;;;9.68;2.10;;;;;;;3.37;100.00;101904.00;6042635;29;20052;-85
2022/01/28 08:30:49;;;;;;;21.70;3.63;;;;;;;3.45;100.00;101889.25;6034187;29;20064;-85
2022/01/28 08:33:51;;;;;;;12.35;2.08;;;;;;;3.47;100.00;101892.63;6050642;29;20067;-85
2022/01/28 08:36:53;;;;;;;7.75;2.30;;;;;;;3.52;100.00;101929.16;6034175;29;20120;-87
2022/01/28 08:39:55;;;;;;;12.23;2.30;;;;;;;3.57;100.00;101909.41;6039637;29;20057;-85
2022/01/28 08:42:57;;;;;;;15.43;2.72;;;;;;;3.55;100.00;101906.06;6035844;29;20048;-85
2022/01/28 08:45:59;;;;;;;10.35;2.17;;;;;;;3.52;100.00;101911.25;6034431;29;20077;-85
2022/01/28 08:49:03;;;;;;;13.40;2.85;;;;;;;3.43;100.00;101912.34;6036865;29;20083;-85
2022/01/28 08:52:10;;;;;;;19.20;2.85;;;;;;;3.53;100.00;101924.88;6038284;29;20068;-85
2022/01/28 08:55:13;;;;;;;17.63;3.63;;;;;;;3.62;100.00;101940.84;6043566;29;20112;-85
2022/01/28 08:58:28;;;;;;;16.60;2.67;;;;;;;3.73;100.00;101937.19;6045607;29;20053;-85
2022/01/28 09:01:30;;;;;;;13.20;4.32;;;;;;;3.80;100.00;101944.66;6046570;29;20080;-84
2022/01/28 09:04:33;;;;;;;14.45;2.53;;;;;;;3.90;100.00;101950.34;6053431;29;20311;-84
2022/01/28 09:07:35;;;;;;;13.60;2.35;;;;;;;3.97;100.00;101956.94;6050596;29;20074;-84
2022/01/28 09:10:45;;;;;;;17.33;2.85;;;;;;;4.02;100.00;101965.34;6045833;29;20369;-84
2022/01/28 09:13:47;;;;;;;9.23;1.95;;;;;;;4.05;100.00;101970.41;6035189;29;20092;-84
2022/01/28 09:16:49;;;;;;;16.58;3.38;;;;;;;4.01;100.00;101966.25;6049711;29;20131;-84
2022/01/28 09:19:51;;;;;;;12.88;2.72;;;;;;;4.05;100.00;101978.09;6041400;29;20049;-84
2022/01/28 09:22:53;;;;;;;12.52;2.85;;;;;;;4.08;100.00;101993.38;6036673;29;20041;-84
2022/01/28 09:25:55;;;;;;;15.50;3.72;;;;;;;4.10;100.00;101993.34;6046361;29;20075;-84
2022/01/28 09:28:58;;;;;;;14.20;3.05;;;;;;;4.11;100.00;102012.94;6031011;29;20045;-84
2022/01/28 09:32:00;;;;;;;18.92;3.80;;;;;;;4.18;100.00;102001.63;6048424;29;20073;-84
2022/01/28 09:35:03;;;;;;;13.75;2.45;;;;;;;4.24;100.00;102018.56;6048849;29;20120;-84
2022/01/28 09:38:04;;;;;;;15.77;3.72;;;;;;;4.24;100.00;102019.38;6045357;29;20052;-84
2022/01/28 09:41:08;;;;;;;15.25;2.90;;;;;;;4.17;100.00;102029.88;6047882;29;20056;-84
2022/01/28 09:44:12;;;;;;;18.35;3.42;;;;;;;4.25;100.00;102033.91;6045048;29;20036;-84
2022/01/28 09:47:16;;;;;;;22.98;3.75;;;;;;;4.14;100.00;102035.09;6050875;29;20041;-84
2022/01/28 09:50:21;;;;;;;15.70;2.92;;;;;;;4.05;100.00;102047.28;6049300;29;20045;-84
2022/01/28 09:53:23;;;;;;;15.80;2.92;;;;;;;4.10;100.00;102032.63;6044973;29;20051;-84
2022/01/28 09:56:25;;;;;;;18.58;3.33;;;;;;;4.20;100.00;102060.53;6026109;29;20140;-84
2022/01/28 09:59:28;;;;;;;15.45;3.47;;;;;;;4.17;100.00;102094.75;6044692;29;20056;-84
2022/01/28 10:03:03;;;;;;;13.75;2.33;;;;;;;4.31;100.00;102068.78;6044618;29;20045;-85
2022/01/28 10:06:06;;;;;;;20.40;4.20;;;;;;;4.35;100.00;102069.50;6040416;29;20645;-85
2022/01/28 10:09:12;;;;;;;10.88;3.25;;;;;;;4.39;100.00;102077.06;6045410;29;20049;-85
2022/01/28 10:12:26;;;;;;;12.52;2.33;;;;;;;4.40;100.00;102085.63;6044970;29;20045;-85
2022/01/28 10:15:29;;;;;;;16.80;3.10;;;;;;;4.40;100.00;102083.06;6043231;29;20037;-84
2022/01/28 10:18:38;;;;;;;20.13;3.25;;;;;;;4.40;100.00;102089.03;6042914;29;20045;-85
2022/01/28 10:21:43;;;;;;;18.13;2.92;;;;;;;4.39;100.00;102084.75;6045308;29;20097;-85
2022/01/28 10:24:45;;;;;;;18.33;3.40;;;;;;;4.51;100.00;102087.00;6044619;29;20047;-85
2022/01/28 10:28:14;;;;;;;11.23;3.00;;;;;;;4.59;100.00;102081.63;6042379;29;20588;-85
2022/01/28 10:31:17;;;;;;;18.35;3.28;;;;;;;4.59;100.00;102085.94;6040853;29;20105;-84
2022/01/28 10:34:48;;;;;;;12.23;3.17;;;;;;;4.58;100.00;102069.72;6047170;29;20407;-85
2022/01/28 10:37:56;;;;;;;9.85;3.28;;;;;;;4.58;100.00;102077.41;6043862;29;20057;-85
2022/01/28 10:41:11;;;;;;;14.32;2.92;;;;;;;4.68;100.00;102081.38;6046203;29;20049;-85
2022/01/28 10:44:14;;;;;;;18.60;4.30;;;;;;;4.76;100.00;102091.41;6046508;29;20049;-85
2022/01/28 10:47:40;;;;;;;14.02;2.85;;;;;;;4.82;100.00;102100.66;6044253;29;20065;-85
2022/01/28 10:50:41;;;;;;;17.90;2.92;;;;;;;4.93;100.00;102083.22;6045336;29;20051;-85
2022/01/28 10:54:04;;;;;;;14.25;3.17;;;;;;;5.04;100.00;102072.63;6047836;29;20524;-84
2022/01/28 10:57:18;;;;;;;19.80;2.60;;;;;;;5.13;100.00;102075.75;6046681;29;20552;-85
2022/01/28 11:00:20;;;;;;;16.65;3.97;;;;;;;5.10;100.00;102075.00;6046876;29;20503;-85
2022/01/28 11:03:27;;;;;;;16.90;4.13;;;;;;;5.00;100.00;102089.00;6047700;29;20124;-85
2022/01/28 11:06:30;;;;;;;17.80;3.25;;;;;;;4.92;100.00;102081.56;6039207;29;20033;-85
2022/01/28 11:09:32;;;;;;;20.02;3.17;;;;;;;4.88;100.00;102079.94;6037462;29;20467;-85
2022/01/28 11:12:40;;;;;;;16.85;2.67;;;;;;;4.80;100.00;102087.88;6048433;29;20055;-85
2022/01/28 11:15:43;;;;;;;10.05;2.13;;;;;;;4.76;100.00;102096.53;6047048;29;20124;-84
2022/01/28 11:18:46;;;;;;;16.35;2.50;;;;;;;4.73;100.00;102104.34;6045250;29;20515;-84
2022/01/28 11:22:32;;;;;;;11.75;3.45;;;;;;;4.65;100.00;102093.47;6042903;29;20052;-84
2022/01/28 11:25:53;;;;;;;15.25;2.95;;;;;;;4.71;100.00;102098.41;6043796;29;20114;-84
2022/01/28 11:28:56;;;;;;;;;;;;;;;4.71;100.00;102081.28;6047440;29;20563;-84
2022/01/28 11:32:17;;;;;;;6.85;2.22;;;;;;;4.75;100.00;102092.31;6048453;29;19928;-84
2022/01/28 11:35:20;;;;;;;14.05;3.33;;;;;;;4.80;100.00;102093.00;6052016;29;20041;-84
2022/01/28 11:38:26;;;;;;;16.30;2.67;;;;;;;4.81;100.00;102078.44;6052786;29;20056;-84
2022/01/28 11:41:28;;;;;;;14.18;3.20;;;;;;;4.81;100.00;102086.97;6054881;29;20045;-84
2022/01/28 11:44:49;;;;;;;14.90;2.60;;;;;;;4.77;100.00;102084.56;6059610;29;20037;-84
2022/01/28 11:48:00;;;;;;;15.83;3.07;;;;;;;4.80;100.00;102099.88;6055567;29;20037;-85
2022/01/28 11:51:14;;;;;;;;;;;;;;;4.82;100.00;102105.78;6050745;29;20044;-84
2022/01/28 11:54:20;;;;;;;22.75;3.78;;;;;;;4.82;100.00;102092.94;6054488;29;20030;-84
2022/01/28 11:57:35;;;;;;;18.67;2.53;;;;;;;4.82;100.00;102109.22;6052270;29;20044;-84
2022/01/28 12:00:45;;;;;;;13.13;2.83;;;;;;;4.92;100.00;102109.78;6049467;29;20041;-84
2022/01/28 12:04:31;;;;;;;10.75;2.10;;;;;;;4.92;100.00;102115.75;6055877;29;20052;-84
2022/01/28 12:07:36;;;;;;;16.33;3.08;;;;;;;4.92;100.00;102141.41;6051474;29;20044;-84
2022/01/28 12:10:43;;;;;;;14.40;2.83;;;;;;;5.05;100.00;102141.03;6054862;29;20037;-84
2022/01/28 12:13:53;;;;;;;17.95;2.65;;;;;;;5.22;100.00;102149.06;6052258;29;20037;-84
2022/01/28 12:16:57;;;;;;;14.35;3.05;;;;;;;5.30;100.00;102139.41;6051465;29;20053;-84
2022/01/28 12:20:22;;;;;;;14.68;2.20;;;;;;;5.38;100.00;102141.72;6048334;29;20659;-84
2022/01/28 12:23:26;;;;;;;12.70;2.55;;;;;;;5.29;100.00;102154.84;6045778;29;20060;-84
2022/01/28 12:27:07;;;;;;;9.75;2.22;;;;;;;5.34;100.00;102151.28;6043878;29;20049;-84
2022/01/28 12:30:13;;;;;;;;;;;;;;;5.45;100.00;102153.50;6046770;29;20057;-84
2022/01/28 12:33:25;;;;;;;9.50;2.40;;;;;;;5.53;100.00;102145.53;6045102;29;20147;-84
2022/01/28 12:36:31;;;;;;;19.73;2.58;;;;;;;5.46;100.00;102147.47;6040762;29;20523;-84
2022/01/28 12:39:55;;;;;;;9.30;2.25;;;;;;;5.53;100.00;102128.41;6043399;29;20140;-84
2022/01/28 12:42:59;;;;;;;14.10;2.53;;;;;;;5.66;100.00;102140.84;6047633;29;20571;-84
2022/01/28 12:46:04;;;;;;;14.32;3.30;;;;;;;5.65;100.00;102150.28;6045517;29;20368;-84
2022/01/28 12:49:09;;;;;;;11.60;3.00;;;;;;;5.52;100.00;102136.16;6044666;29;20056;-84
2022/01/28 12:52:12;;;;;;;10.52;2.63;;;;;;;5.57;100.00;102124.03;6035249;29;20096;-84
2022/01/28 12:55:14;;;;;;;8.65;2.63;;;;;;;5.49;100.00;102120.84;6044670;29;20048;-84
2022/01/28 12:58:16;;;;;;;17.60;3.53;;;;;;;5.50;100.00;102151.63;6042426;29;20109;-84
2022/01/28 13:01:19;;;;;;;13.25;2.50;;;;;;;5.36;100.00;102123.78;6042274;29;20052;-84
2022/01/28 13:04:35;;;;;;;16.15;2.67;;;;;;;5.30;100.00;102113.72;6044870;29;20049;-84
2022/01/28 13:11:04;;;;;;;20.92;3.00;;;;;;;5.17;100.00;102112.44;6039356;29;20045;-84
2022/01/28 13:14:06;;;;;;;16.05;3.20;;;;;;;5.22;100.00;102131.09;6040828;29;20040;-84
2022/01/28 13:17:08;;;;;;;15.88;2.85;;;;;;;5.23;100.00;102127.63;6044867;29;20132;-84
2022/01/28 13:20:11;;;;;;;11.70;2.25;;;;;;;5.31;100.00;102141.06;6046185;29;20041;-84
2022/01/28 13:23:13;;;;;;;9.23;2.10;;;;;;;5.25;100.00;102133.56;6042227;29;20682;-84
2022/01/28 13:26:16;;;;;;;10.25;2.20;;;;;;;5.17;100.00;102133.81;6043551;29;20052;-84
2022/01/28 13:30:01;;;;;;;14.73;3.08;;;;;;;5.04;100.00;102137.59;6042683;29;20045;-84
2022/01/28 13:33:06;;;;;;;13.50;2.53;;;;;;;4.95;100.00;102136.16;6042731;29;20041;-84
2022/01/28 13:36:08;;;;;;;14.85;2.55;;;;;;;4.87;100.00;102127.88;6039012;29;20487;-84
2022/01/28 13:43:50;;;;;;;9.38;2.08;;;;;;;4.99;100.00;102143.78;6048247;29;20052;-84
2022/01/28 13:47:02;;;;;;;12.05;2.75;;;;;;;5.08;100.00;102131.50;6044557;29;20053;-84
2022/01/28 13:50:05;;;;;;;8.82;2.03;;;;;;;5.16;100.00;102126.97;6024549;29;20047;-85
2022/01/28 13:56:38;;;;;;;10.98;2.58;;;;;;;5.20;100.00;102122.59;6041868;29;20482;-85
2022/01/28 13:59:44;;;;;;;15.40;3.17;;;;;;;5.26;100.00;102130.09;6031608;29;20041;-83
2022/01/28 14:02:46;;;;;;;10.02;2.42;;;;;;;5.24;100.00;102144.75;6042680;29;20620;-83
2022/01/28 14:06:15;;;;;;;15.02;2.65;;;;;;;5.26;100.00;102132.66;6043834;29;20580;-83
2022/01/28 14:09:43;;;;;;;17.67;2.70;;;;;;;5.26;100.00;102140.38;6035168;29;20104;-82
2022/01/28 14:12:49;;;;;;;13.02;2.30;;;;;;;5.23;100.00;102137.06;6043722;29;20520;-82
2022/01/28 14:16:14;;;;;;;13.55;1.90;;;;;;;5.22;100.00;102143.06;6042117;29;20045;-82
2022/01/28 14:19:16;;;;;;;10.98;3.58;;;;;;;5.26;100.00;102136.97;6038743;29;20053;-82
2022/01/28 14:22:18;;;;;;;9.07;1.98;;;;;;;5.24;100.00;102136.16;6039889;29;20151;-82
2022/01/28 14:25:25;;;;;;;16.13;4.15;;;;;;;5.20;100.00;102137.16;6048519;29;20128;-82
2022/01/28 14:32:44;;;;;;;17.92;2.95;;;;;;;5.22;100.00;102143.06;6044207;29;20060;-82
2022/01/28 14:36:02;;;;;;;13.15;2.83;;;;;;;5.20;100.00;102135.44;6046374;29;20060;-82
2022/01/28 14:42:39;;;;;;;14.60;2.97;;;;;;;5.08;100.00;102146.06;6047564;29;20049;-82
2022/01/28 14:45:48;;;;;;;12.43;2.58;;;;;;;5.15;100.00;102147.56;6039101;29;20048;-82
2022/01/28 14:48:52;;;;;;;18.58;3.08;;;;;;;5.08;100.00;102156.34;6037839;29;20384;-82
2022/01/28 14:51:59;;;;;;;19.38;3.25;;;;;;;4.92;100.00;102156.78;6036950;29;20550;-82
2022/01/28 14:55:02;;;;;;;16.02;2.65;;;;;;;4.82;100.00;102152.81;6047286;29;20049;-82
2022/01/28 14:58:04;;;;;;;15.13;3.25;;;;;;;4.66;100.00;102159.25;6046963;29;20049;-82
2022/01/28 15:01:07;;;;;;;16.15;2.67;;;;;;;4.57;100.00;102168.06;6048400;29;20051;-82
2022/01/28 15:04:09;;;;;;;17.05;2.90;;;;;;;4.53;100.00;102174.97;6047918;29;20112;-82
2022/01/28 15:07:11;;;;;;;12.07;2.83;;;;;;;4.49;100.00;102186.19;6045627;29;20061;-82
2022/01/28 15:10:13;;;;;;;13.73;2.72;;;;;;;4.51;100.00;102169.03;6040417;29;20040;-82
2022/01/28 15:13:15;;;;;;;13.45;2.80;;;;;;;4.43;100.00;102173.53;6040386;29;20155;-82
2022/01/28 15:16:17;;;;;;;7.28;2.40;;;;;;;4.33;100.00;102174.66;6045740;29;20517;-82
2022/01/28 15:19:21;;;;;;;10.85;2.20;;;;;;;4.46;100.00;102170.06;6040776;29;20044;-82
2022/01/28 15:22:22;;;;;;;17.20;2.92;;;;;;;4.46;100.00;102173.47;6041651;29;20048;-82
2022/01/28 15:25:25;;;;;;;12.43;2.50;;;;;;;4.43;100.00;102182.97;6041493;29;20037;-82
2022/01/28 15:28:29;;;;;;;10.60;2.67;;;;;;;4.36;100.00;102179.72;6038988;29;20033;-82
2022/01/28 15:38:06;;;;;;;10.07;2.42;;;;;;;4.04;100.00;102183.94;6032083;29;20057;-82
2022/01/28 15:41:09;;;;;;;16.02;3.17;;;;;;;3.93;100.00;102180.81;6040824;29;20680;-82
2022/01/28 15:44:11;;;;;;;17.98;3.15;;;;;;;3.88;100.00;102185.22;6043092;29;20060;-82
2022/01/28 15:47:15;;;;;;;14.38;2.67;;;;;;;3.95;100.00;102191.00;6039042;29;20069;-82
2022/01/28 15:50:17;;;;;;;15.27;2.88;;;;;;;3.97;100.00;102195.22;6032890;29;20082;-82
2022/01/28 16:01:24;;;;;;;15.40;3.97;;;;;;;3.47;100.00;102193.84;6040885;29;20052;-82
2022/01/28 16:04:27;;;;;;;18.50;3.15;;;;;;;3.35;100.00;102197.50;6042710;29;20505;-82
2022/01/28 16:07:30;;;;;;;15.90;3.70;;;;;;;3.49;100.00;102199.78;6037923;29;20184;-82
2022/01/28 16:11:01;;;;;;;18.23;3.80;;;;;;;3.38;100.00;102198.28;6041585;29;20114;-82
2022/01/28 16:17:37;;;;;;;13.40;2.90;;;;;;;3.14;100.00;102209.06;6039119;29;20407;-82
2022/01/28 16:20:40;;;;;;;11.73;2.67;;;;;;;3.05;100.00;102204.13;6035098;29;20051;-82
2022/01/28 16:23:42;;;;;;;15.73;2.85;;;;;;;2.90;100.00;102212.94;6033184;29;20042;-82
2022/01/28 16:26:44;;;;;;;17.17;3.60;;;;;;;2.86;100.00;102208.75;6037668;29;20075;-82